x

West Dixon Entrance (46205) Wave Buoy

4:00pm - Thu 22nd Jun 2017 All times are PDT. -7 hours from GMT.

  • Sig Wave height 4.3ft
  • Peak Period 8s
  • Wind
    4mph, 4mph gusts
  • Sea Temp 55°f
  • Air Temp 53°f
  • Sea Pressure 1031.8mb
  • West Dixon Entrance
  • West Dixon Entrance

More Historic Weather Station data

Upgrade to MSW Pro to gain access to the past 30 days of data for over 8000 Wavebouys and Weather Stations around the globe.

Join Pro

Comparision Forecast

View Surf forecast
   
Thu 06/22 4:00pm 4.5ft 8s 4 4 mph 1031.8mb 55f 53f
3:00pm 4.5ft 7s 4 7 mph 1031.7mb 54f 53f
2:00pm 4.5ft 8s 4 4 mph 1031.5mb 54f 53f
1:00pm 4.5ft 8s 4 7 mph 1031.5mb 53f 52f
12:00pm 4.5ft 8s 7 9 mph 1031.5mb 52f 52f
11:00am 4.5ft 8s 7 9 mph 1031.4mb 53f 52f
10:00am 4.5ft 8s 7 9 mph 1031.5mb 53f 52f
9:00am 4.5ft 8s  -  0 mph 1031.2mb 52f 51f
8:00am 4.5ft 8s 2 4 mph 1031.1mb 52f 50f
7:00am 4.5ft 8s 7 9 mph 1030.8mb 52f 50f
6:00am 5ft 8s 7 9 mph 1030.5mb 52f 51f
5:00am 5.5ft 8s 9 11 mph 1030.4mb 52f 51f
4:00am 5.5ft 8s 9 11 mph 1030.4mb 52f 51f
3:00am 6ft 8s 11 13 mph 1030mb 52f 51f
2:00am 6ft 8s 11 13 mph 1029.9mb 52f 51f
1:00am 6ft 9s 11 13 mph 1029.7mb 52f 52f
12:00am 6ft 9s 11 13 mph 1029.6mb 52f 51f
Wed 06/21 11:00pm 6ft 9s 11 13 mph 1029.3mb 52f 51f
10:00pm 6ft 8s 11 13 mph 1028.9mb 52f 52f
9:00pm 6ft 10s 11 13 mph 1028.7mb 52f 52f
8:00pm 6ft 8s 9 11 mph 1028.6mb 52f 52f
7:00pm 7ft 9s 11 13 mph 1028.3mb 52f 52f
6:00pm 7ft 8s 11 13 mph 1028mb 52f 52f
5:00pm 7.5ft 9s 13 16 mph 1027.8mb 52f 52f
4:00pm 7.5ft 8s 16 18 mph 1027.4mb 52f 52f
3:00pm 8ft 10s 16 18 mph 1026.9mb 52f 52f
2:00pm 7ft 9s 16 20 mph 1026.4mb 52f 52f
1:00pm 8.5ft 10s 16 18 mph 1025.7mb 52f 52f
12:00pm 8ft 10s 16 20 mph 1025.1mb 52f 52f
11:00am 8ft 10s 16 20 mph 1024.5mb 52f 52f
10:00am 8ft 10s 20 22 mph 1024mb 52f 51f
9:00am 8ft 10s 18 20 mph 1023.9mb 52f 51f
8:00am 7.5ft 10s 20 22 mph 1023.4mb 52f 51f
7:00am 8ft 10s 18 22 mph 1022.9mb 52f 51f
6:00am 7.5ft 10s 18 22 mph 1022.5mb 52f 52f
5:00am 8ft 10s 18 22 mph 1021.8mb 52f 52f
4:00am 8ft 10s 18 22 mph 1021.5mb 52f 52f
3:00am 8.5ft 10s 18 22 mph 1021.2mb 52f 51f
2:00am 8.5ft 9s 18 20 mph 1020.9mb 52f 52f
1:00am 8ft 10s 18 22 mph 1020.3mb 52f 52f
12:00am 7ft 9s 18 22 mph 1019.7mb 52f 52f
Tue 06/20 11:00pm 8ft 10s 18 22 mph 1019.1mb 52f 52f
10:00pm 7ft 8s 18 20 mph 1018.2mb 52f 51f
9:00pm 6.5ft 9s 16 20 mph 1018mb 52f 51f
8:00pm 6ft 9s 18 22 mph 1017.7mb 52f 52f
7:00pm 6ft 9s 18 22 mph 1017.5mb 52f 52f
6:00pm 6ft 10s 16 20 mph 1017.2mb 52f 51f
5:00pm 6.5ft 9s 16 18 mph 1016.8mb 52f 53f
4:00pm 6.5ft 9s 18 22 mph 1016.3mb 52f 52f
3:00pm 7ft 9s 16 18 mph 1015.8mb 52f 53f
2:00pm 7ft 8s 18 22 mph 1015.2mb 52f 52f
1:00pm 7ft 5s 18 22 mph 1014.5mb 52f 52f
12:00pm 6.5ft 7s 20 27 mph 1014mb 52f 52f
11:00am 6ft 8s 20 22 mph 1013.7mb 52f 52f
8:00am 5ft 6s 16 20 mph 1013.3mb 52f 51f
7:00am 5ft 8s 18 20 mph 1013.3mb 52f 51f
6:00am 5.5ft 7s 16 18 mph 1013.1mb 52f 51f
5:00am 5ft 6s 18 20 mph 1012.8mb 52f 52f
4:00am 5ft 5s 20 27 mph 1012.5mb 52f 51f
3:00am 5ft 5s 16 18 mph 1012.6mb 52f 51f
2:00am 5ft 6s 16 20 mph 1012.3mb 52f 51f
1:00am 5ft 7s 16 20 mph 1012.1mb 52f 51f
12:00am 5ft 10s 16 18 mph 1011.9mb 52f 51f
Mon 06/19 11:00pm 4.5ft 7s 18 22 mph 1011.4mb 52f 52f
10:00pm 4.5ft 7s 18 22 mph 1011.2mb 52f 52f
9:00pm 4.5ft 10s 16 20 mph 1011mb 52f 52f
8:00pm 4.5ft 10s 13 16 mph 1011mb 53f 52f
7:00pm 5ft 7s 13 18 mph 1011.2mb 53f 53f
6:00pm 5.5ft 6s 13 18 mph 1011.4mb 53f 53f
5:00pm 6ft 7s 13 16 mph 1011.6mb 53f 53f
4:00pm 6ft 10s 16 20 mph 1011.6mb 53f 53f
3:00pm 5.5ft 10s 18 22 mph 1011.5mb 53f 52f
2:00pm 5.5ft 10s 16 20 mph 1011.4mb 53f 52f
1:00pm 5ft 9s 16 20 mph 1011.2mb 52f 52f
12:00pm 5ft 10s 16 18 mph 1011mb 52f 52f
11:00am 5ft 9s 16 18 mph 1010.8mb 52f 51f
10:00am 5ft 8s 16 20 mph 1010.7mb 52f 50f
9:00am 5ft 8s 16 20 mph 1010.2mb 52f 51f
8:00am 5ft 8s 20 22 mph 1009.7mb 52f 52f
7:00am 5ft 8s 16 20 mph 1009.4mb 52f 52f
6:00am 6ft 8s 16 20 mph 1009mb 52f 52f
5:00am 6ft 8s 18 22 mph 1008.5mb 52f 52f
4:00am 6.5ft 8s 20 27 mph 1007.7mb 52f 52f
3:00am 7ft 7s 18 22 mph 1007mb 53f 52f
2:00am 6.5ft 7s 18 22 mph 1007mb 53f 52f
1:00am 6ft 8s 18 22 mph 1007.2mb 53f 53f